Terminal Aerodrome Forecast
Issued by NWS

Current Version | Previous Version | Text Only | Print | Product List | Glossary On
Versions: 1 2 3 4 5 6 7 8 9 10 11 12 13 14 15 16 17 18 19 20
185 FTUS41 KGYX 122320 TAFLEB TAF KLEB 122320Z 1300/1324 18007KT P6SM SCT040 FM130800 18004KT P6SM -SHSN BKN030 OVC050 FM131500 31012G24KT 5SM -SHSN BKN030 OVC050=

USA.gov is the U.S. government's official web portal to all federal, state and local government web resources and services.